Aberdeen, California
Current Conditions -  °F | °C
As of 11:56 AM on Friday 19 Dec 2014 (Local Time) from KBIH Reporting Station
Few Clouds Few Clouds  
Wind Chill: 43°   Ceiling: Unl
Heat Index: 45°   Visibility: 10mi
Dew Point: 32°   Wind: 5mph
Humidity: 60%   Direction: 200°SSW
Pressure: 30.17"   Gusts: NA
Location:  36.9237°N, 117.897°W
Report Text: KBIH 191956Z AUTO 20004KT 10SM FEW028 FEW035 07/00 A3017 RMK AO2 SLP218 T00720000
Loading
Personal Weather Stations






























Interactive Weather Map New forecast layout! Learn more

10-Day Weather Forecast

Advertisements
Track Severe Weather on mobile